createdAt,value
2023-05-09T00:00:32.029Z,58.33
2023-05-09T00:03:33.551Z,58.60
2023-05-09T00:06:35.323Z,58.32
2023-05-09T00:09:36.848Z,58.32
2023-05-09T00:12:38.307Z,58.04
2023-05-09T00:15:39.839Z,58.31
2023-05-09T00:18:42.273Z,58.33
2023-05-09T00:21:43.811Z,58.31
2023-05-09T00:24:45.366Z,58.08
2023-05-09T00:27:47.011Z,58.39
2023-05-09T00:30:48.527Z,58.42
2023-05-09T00:33:50.313Z,58.28
2023-05-09T00:36:51.791Z,58.42
2023-05-09T00:39:53.283Z,58.22
2023-05-09T00:42:58.156Z,58.07
2023-05-09T00:45:59.819Z,58.03
2023-05-09T00:49:01.567Z,58.44
2023-05-09T00:52:04.884Z,58.04
2023-05-09T00:55:08.300Z,58.19
2023-05-09T00:58:10.966Z,58.11
2023-05-09T01:01:12.683Z,58.29
2023-05-09T01:04:15.098Z,58.19
2023-05-09T01:07:19.568Z,58.15
2023-05-09T01:10:22.026Z,58.13
2023-05-09T01:13:46.839Z,58.40
2023-05-09T01:17:02.648Z,58.19
2023-05-09T01:20:35.665Z,58.20
2023-05-09T01:23:46.617Z,58.03
2023-05-09T01:27:12.707Z,58.16
2023-05-09T01:30:16.786Z,58.17
2023-05-09T01:33:20.261Z,58.25
2023-05-09T01:36:23.271Z,58.52
2023-05-09T01:39:26.789Z,58.51
2023-05-09T01:42:36.552Z,58.46
2023-05-09T01:45:40.526Z,58.50
2023-05-09T01:48:42.835Z,58.44
2023-05-09T01:51:45.079Z,58.70
2023-05-09T01:54:48.347Z,58.84
2023-05-09T01:57:50.328Z,58.89
2023-05-09T02:00:52.966Z,58.88
2023-05-09T02:03:56.101Z,58.78
2023-05-09T02:06:58.785Z,58.84
2023-05-09T02:10:00.810Z,58.87
2023-05-09T02:13:02.330Z,58.95
2023-05-09T02:16:05.840Z,58.72
2023-05-09T02:19:07.559Z,58.77
2023-05-09T02:22:09.468Z,59.03
2023-05-09T02:25:15.271Z,59.23
2023-05-09T02:28:19.476Z,59.19
2023-05-09T02:31:24.054Z,59.13
2023-05-09T02:34:25.802Z,59.25
2023-05-09T02:37:28.562Z,59.19
2023-05-09T02:40:31.057Z,59.22
2023-05-09T02:43:32.564Z,59.14
2023-05-09T02:46:34.209Z,59.06
2023-05-09T02:49:35.852Z,59.12
2023-05-09T02:52:39.112Z,59.22
2023-05-09T02:55:40.610Z,59.20
2023-05-09T02:58:42.173Z,59.24
2023-05-09T03:01:43.722Z,59.33
2023-05-09T03:04:45.548Z,59.30
2023-05-09T03:07:47.391Z,59.33
2023-05-09T03:10:48.901Z,59.26
2023-05-09T03:13:51.167Z,59.78
2023-05-09T03:16:52.731Z,59.75
2023-05-09T03:20:01.703Z,59.66
2023-05-09T03:23:05.515Z,59.66
2023-05-09T03:26:06.975Z,59.72
2023-05-09T03:29:08.651Z,59.60
2023-05-09T03:32:10.646Z,59.41
2023-05-09T03:35:12.384Z,59.38
2023-05-09T03:38:13.981Z,59.47
2023-05-09T03:41:17.613Z,59.47
2023-05-09T03:44:21.366Z,59.53
2023-05-09T03:47:22.906Z,59.53
2023-05-09T03:50:24.569Z,59.53
2023-05-09T03:53:28.237Z,59.61
2023-05-09T03:56:30.054Z,59.39
2023-05-09T03:59:31.759Z,59.56
2023-05-09T04:02:34.486Z,59.48
2023-05-09T04:05:36.387Z,59.59
2023-05-09T04:08:39.689Z,59.56
2023-05-09T04:11:42.222Z,59.30
2023-05-09T04:14:48.946Z,59.60
2023-05-09T04:17:51.442Z,59.74
2023-05-09T04:20:53.456Z,59.65
2023-05-09T04:23:55.699Z,59.54
2023-05-09T04:27:04.796Z,59.51
2023-05-09T04:30:06.941Z,59.72
2023-05-09T04:33:09.513Z,59.84
2023-05-09T04:36:11.275Z,59.81
2023-05-09T04:39:13.785Z,59.96
2023-05-09T04:42:24.275Z,59.60
2023-05-09T04:45:26.638Z,59.65
2023-05-09T04:48:28.993Z,59.66
2023-05-09T04:51:30.533Z,59.82
2023-05-09T04:54:32.008Z,59.73
2023-05-09T04:57:33.756Z,59.51
2023-05-09T05:00:36.493Z,59.53
2023-05-09T05:03:38.681Z,59.62
2023-05-09T05:06:40.873Z,59.66
2023-05-09T05:09:43.004Z,59.78
2023-05-09T05:12:44.846Z,59.84
2023-05-09T05:15:48.352Z,59.45
2023-05-09T05:18:50.221Z,59.83
2023-05-09T05:21:53.733Z,59.63
2023-05-09T05:24:55.396Z,59.49
2023-05-09T05:27:57.406Z,59.48
2023-05-09T05:30:58.911Z,59.41
2023-05-09T05:34:00.966Z,59.86
2023-05-09T05:37:27.921Z,59.52
2023-05-09T05:40:29.606Z,59.53
2023-05-09T05:43:32.860Z,59.62
2023-05-09T05:46:35.141Z,59.53
2023-05-09T05:49:37.180Z,59.55
2023-05-09T05:52:39.856Z,59.43
2023-05-09T05:55:45.785Z,59.71
2023-05-09T05:58:47.353Z,59.64
2023-05-09T06:01:49.148Z,59.81
2023-05-09T06:04:50.711Z,59.69
2023-05-09T06:07:53.073Z,59.63
2023-05-09T06:10:55.194Z,60.24
2023-05-09T06:13:56.755Z,59.57
2023-05-09T06:16:59.453Z,59.73
2023-05-09T06:20:01.146Z,59.17
2023-05-09T06:23:02.736Z,59.32
2023-05-09T06:26:04.458Z,59.39
2023-05-09T06:29:06.502Z,59.51
2023-05-09T06:32:08.164Z,59.45
2023-05-09T06:35:09.734Z,59.51
2023-05-09T06:38:11.262Z,59.46
2023-05-09T06:41:12.856Z,59.48
2023-05-09T06:44:14.368Z,59.61
2023-05-09T06:47:16.052Z,59.39
2023-05-09T06:50:17.564Z,59.40
2023-05-09T06:53:19.053Z,59.49
2023-05-09T06:56:22.709Z,59.42
2023-05-09T06:59:24.363Z,59.41
2023-05-09T07:02:25.960Z,59.42
2023-05-09T07:05:27.656Z,59.35
2023-05-09T07:08:29.197Z,59.44
2023-05-09T07:11:37.039Z,59.32
2023-05-09T07:14:38.582Z,59.27
2023-05-09T07:17:40.301Z,59.12
2023-05-09T07:20:41.899Z,59.16
2023-05-09T07:23:43.375Z,59.27
2023-05-09T07:26:44.861Z,59.05
2023-05-09T07:29:46.388Z,58.99
2023-05-09T07:32:47.880Z,59.00
2023-05-09T07:35:49.614Z,59.31
2023-05-09T07:38:53.454Z,59.02
2023-05-09T07:41:54.917Z,59.04
2023-05-09T07:44:56.630Z,59.03
2023-05-09T07:47:58.193Z,59.14
2023-05-09T07:50:59.746Z,59.35
2023-05-09T07:54:01.289Z,59.21
2023-05-09T07:57:02.862Z,59.21
2023-05-09T08:00:06.320Z,59.18
2023-05-09T08:03:15.025Z,59.21
2023-05-09T08:06:16.818Z,59.07
2023-05-09T08:09:18.631Z,59.09
2023-05-09T08:12:20.198Z,59.00
2023-05-09T08:15:21.792Z,59.21
2023-05-09T08:18:23.311Z,59.09
2023-05-09T08:21:25.055Z,59.19
2023-05-09T08:24:26.648Z,59.28
2023-05-09T08:27:28.126Z,59.30
2023-05-09T08:30:29.758Z,59.21
2023-05-09T08:33:31.611Z,59.27
2023-05-09T08:36:33.769Z,59.13
2023-05-09T08:39:35.220Z,59.14
2023-05-09T08:42:38.276Z,59.19
2023-05-09T08:45:58.925Z,59.09
2023-05-09T08:49:00.958Z,59.19
2023-05-09T08:52:02.910Z,59.27
2023-05-09T08:55:04.990Z,59.29
2023-05-09T08:58:07.098Z,59.37
2023-05-09T09:01:09.482Z,59.35
2023-05-09T09:04:13.680Z,59.18
2023-05-09T09:07:16.498Z,59.28
2023-05-09T09:10:20.804Z,59.28
2023-05-09T09:13:23.213Z,59.19
2023-05-09T09:16:26.603Z,59.16
2023-05-09T09:19:31.421Z,59.31
2023-05-09T09:22:34.810Z,59.25
2023-05-09T09:25:36.718Z,59.26
2023-05-09T09:28:38.296Z,59.27
2023-05-09T09:31:44.676Z,59.25
2023-05-09T09:34:49.649Z,59.29
2023-05-09T09:37:58.496Z,59.18
2023-05-09T09:41:01.252Z,59.42
2023-05-09T09:44:12.385Z,59.59
2023-05-09T09:47:13.892Z,59.11
2023-05-09T09:50:20.121Z,59.25
2023-05-09T09:53:21.896Z,59.32
2023-05-09T09:56:39.137Z,59.39
2023-05-09T09:59:40.712Z,59.30
2023-05-09T10:02:50.434Z,59.28
2023-05-09T10:06:01.851Z,59.28
2023-05-09T10:09:03.434Z,59.41
2023-05-09T10:12:06.803Z,59.27
2023-05-09T10:15:09.508Z,59.22
2023-05-09T10:18:14.634Z,59.27
2023-05-09T10:21:16.286Z,58.98
2023-05-09T10:24:27.389Z,59.46
2023-05-09T10:27:32.125Z,59.27
2023-05-09T10:30:41.162Z,59.26
2023-05-09T10:33:49.237Z,59.44
2023-05-09T10:36:50.885Z,59.61
2023-05-09T10:39:53.670Z,59.36
2023-05-09T10:42:55.205Z,59.45
2023-05-09T10:45:56.847Z,59.75
2023-05-09T10:48:59.003Z,59.77
2023-05-09T10:52:00.523Z,60.12
2023-05-09T10:55:05.031Z,60.12
2023-05-09T10:58:37.279Z,59.90
2023-05-09T11:01:39.538Z,60.12
2023-05-09T11:04:41.492Z,60.02
2023-05-09T11:07:43.405Z,60.02
2023-05-09T11:10:45.068Z,59.98
2023-05-09T11:13:46.537Z,59.99
2023-05-09T11:16:59.553Z,59.88
2023-05-09T11:20:05.661Z,59.99
2023-05-09T11:23:08.784Z,59.82
2023-05-09T11:26:10.386Z,60.15
2023-05-09T11:29:12.264Z,59.84
2023-05-09T11:32:15.313Z,59.90
2023-05-09T11:35:21.509Z,59.78
2023-05-09T11:38:23.040Z,59.91
2023-05-09T11:41:24.620Z,59.74
2023-05-09T11:44:27.970Z,60.05
2023-05-09T11:47:30.758Z,60.15
2023-05-09T11:50:32.318Z,60.06
2023-05-09T11:53:34.109Z,60.16
2023-05-09T11:56:37.988Z,60.53
2023-05-09T11:59:39.585Z,60.61
2023-05-09T12:02:44.574Z,60.73
2023-05-09T12:05:48.403Z,60.86
2023-05-09T12:08:50.481Z,61.24
2023-05-09T12:11:52.165Z,61.28
2023-05-09T12:14:53.694Z,61.30
2023-05-09T12:18:06.538Z,61.47
2023-05-09T12:21:08.083Z,61.64
2023-05-09T12:24:09.887Z,61.61
2023-05-09T12:27:11.670Z,61.77
2023-05-09T12:30:16.087Z,61.61
2023-05-09T12:33:18.606Z,61.60
2023-05-09T12:36:20.122Z,61.96
2023-05-09T12:39:22.885Z,61.70
2023-05-09T12:42:27.606Z,61.93
2023-05-09T12:45:32.780Z,61.68
2023-05-09T12:48:38.811Z,61.80
2023-05-09T12:51:49.326Z,61.64
2023-05-09T12:54:52.600Z,61.88
2023-05-09T12:58:02.571Z,61.96
2023-05-09T13:01:05.080Z,61.75
2023-05-09T13:04:07.489Z,61.71
2023-05-09T13:07:13.037Z,61.85
2023-05-09T13:10:21.463Z,61.84
2023-05-09T13:13:26.627Z,61.83
2023-05-09T13:16:28.780Z,61.76
2023-05-09T13:19:30.295Z,61.91
2023-05-09T13:22:32.301Z,61.61
2023-05-09T13:25:33.819Z,61.84
2023-05-09T13:28:36.314Z,61.67
2023-05-09T13:31:37.963Z,61.84
2023-05-09T13:34:39.462Z,61.78
2023-05-09T13:37:40.999Z,61.81
2023-05-09T13:40:42.471Z,61.45
2023-05-09T13:43:43.947Z,61.23
2023-05-09T13:46:45.867Z,61.58
2023-05-09T13:49:47.404Z,61.48
2023-05-09T13:52:49.893Z,61.43
2023-05-09T13:55:51.386Z,61.21
2023-05-09T13:58:52.921Z,61.10
2023-05-09T14:01:57.323Z,61.19
2023-05-09T14:04:58.966Z,61.09
2023-05-09T14:08:01.509Z,61.21
2023-05-09T14:11:03.028Z,60.92
2023-05-09T14:14:04.492Z,60.97
2023-05-09T14:17:05.918Z,60.83
2023-05-09T14:20:08.132Z,60.43
2023-05-09T14:23:09.633Z,59.99
2023-05-09T14:26:11.147Z,59.70
2023-05-09T14:29:12.887Z,59.73
2023-05-09T14:32:14.532Z,59.64
2023-05-09T14:35:16.137Z,59.53
2023-05-09T14:38:17.936Z,59.35
2023-05-09T14:41:21.422Z,59.12
2023-05-09T14:44:24.903Z,59.07
2023-05-09T14:47:26.446Z,58.73
2023-05-09T14:50:28.070Z,58.72
2023-05-09T14:53:30.061Z,58.64
2023-05-09T14:56:31.572Z,58.33
2023-05-09T14:59:34.808Z,58.10
2023-05-09T15:02:39.383Z,58.11
2023-05-09T15:05:41.711Z,57.85
2023-05-09T15:08:43.266Z,57.92
2023-05-09T15:11:48.878Z,57.89
2023-05-09T15:14:53.786Z,57.61
2023-05-09T15:17:55.427Z,57.68
2023-05-09T15:20:57.359Z,57.40
2023-05-09T15:23:59.313Z,57.63
2023-05-09T15:27:00.816Z,57.38
2023-05-09T15:30:02.407Z,57.44
2023-05-09T15:33:03.986Z,57.48
2023-05-09T15:36:06.734Z,57.56
2023-05-09T15:39:08.486Z,57.56
2023-05-09T15:42:12.180Z,57.62
2023-05-09T15:45:13.712Z,57.44
2023-05-09T15:48:16.237Z,57.70
2023-05-09T15:51:17.712Z,57.55
2023-05-09T15:54:20.194Z,57.59
2023-05-09T15:57:21.966Z,57.76
2023-05-09T16:00:23.548Z,57.66
2023-05-09T16:03:25.323Z,57.77
2023-05-09T16:06:27.272Z,58.01
2023-05-09T16:09:28.763Z,57.97
2023-05-09T16:12:32.704Z,57.82
2023-05-09T16:15:35.036Z,57.68
2023-05-09T16:18:36.487Z,57.55
2023-05-09T16:21:39.181Z,57.66
2023-05-09T16:24:40.772Z,57.82
2023-05-09T16:27:42.281Z,57.83
2023-05-09T16:30:43.773Z,57.60
2023-05-09T16:33:46.906Z,57.92
2023-05-09T16:36:48.517Z,57.80
2023-05-09T16:39:50.078Z,58.23
2023-05-09T16:42:51.612Z,57.99
2023-05-09T16:45:53.152Z,58.21
2023-05-09T16:48:55.750Z,58.09
2023-05-09T16:51:57.332Z,58.01
2023-05-09T16:54:59.345Z,58.23
2023-05-09T16:58:01.164Z,58.25
2023-05-09T17:01:02.751Z,58.28
2023-05-09T17:04:06.605Z,58.19
2023-05-09T17:07:08.648Z,58.33
2023-05-09T17:10:10.977Z,58.36
2023-05-09T17:13:12.713Z,58.63
2023-05-09T17:16:14.513Z,58.66
2023-05-09T17:19:16.535Z,58.68
2023-05-09T17:22:18.008Z,58.72
2023-05-09T17:25:19.508Z,58.79
2023-05-09T17:28:21.103Z,59.02
2023-05-09T17:31:22.728Z,58.78
2023-05-09T17:34:24.345Z,59.17
2023-05-09T17:37:25.843Z,59.19
2023-05-09T17:40:27.298Z,59.06
2023-05-09T17:43:28.989Z,59.41
2023-05-09T17:46:32.578Z,59.65
2023-05-09T17:49:34.070Z,59.50
2023-05-09T17:52:36.397Z,59.26
2023-05-09T17:55:37.913Z,58.93
2023-05-09T17:58:39.412Z,58.11
2023-05-09T18:01:41.205Z,57.29
2023-05-09T18:04:44.544Z,56.89
2023-05-09T18:07:46.021Z,55.98
2023-05-09T18:10:47.503Z,55.36
2023-05-09T18:13:48.993Z,55.15
2023-05-09T18:16:50.704Z,54.58
2023-05-09T18:19:52.193Z,54.72
2023-05-09T18:22:54.315Z,55.12
2023-05-09T18:25:56.038Z,55.44
2023-05-09T18:28:57.846Z,55.11
2023-05-09T18:31:59.337Z,54.69
2023-05-09T18:35:00.900Z,55.17
2023-05-09T18:38:02.402Z,55.77
2023-05-09T18:41:06.044Z,55.85
2023-05-09T18:44:08.490Z,56.18
2023-05-09T18:47:10.173Z,56.46
2023-05-09T18:50:13.545Z,56.46
2023-05-09T18:53:15.221Z,56.29
2023-05-09T18:56:18.943Z,57.03
2023-05-09T18:59:20.593Z,56.82
2023-05-09T19:02:23.402Z,57.32
2023-05-09T19:05:25.886Z,57.37
2023-05-09T19:08:27.910Z,57.94
2023-05-09T19:11:29.476Z,57.80
2023-05-09T19:14:31.177Z,57.61
2023-05-09T19:17:32.752Z,57.75
2023-05-09T19:20:34.261Z,57.60
2023-05-09T19:23:35.821Z,57.67
2023-05-09T19:26:37.382Z,57.85
2023-05-09T19:29:38.915Z,57.72
2023-05-09T19:32:41.816Z,57.82
2023-05-09T19:35:43.699Z,57.82
2023-05-09T19:38:45.442Z,57.97
2023-05-09T19:41:46.936Z,57.85
2023-05-09T19:44:48.525Z,58.10
2023-05-09T19:47:50.084Z,58.31
2023-05-09T19:50:56.765Z,58.18
2023-05-09T19:53:58.261Z,58.11
2023-05-09T19:56:59.736Z,58.21
2023-05-09T20:00:01.423Z,57.96
2023-05-09T20:03:04.205Z,58.51
2023-05-09T20:06:05.914Z,58.31
2023-05-09T20:09:07.523Z,58.40
2023-05-09T20:12:09.626Z,58.27
2023-05-09T20:15:11.998Z,58.28
2023-05-09T20:18:16.119Z,58.00
2023-05-09T20:21:17.609Z,57.89
2023-05-09T20:24:19.725Z,57.72
2023-05-09T20:27:21.936Z,58.00
2023-05-09T20:30:23.410Z,57.91
2023-05-09T20:33:24.878Z,57.63
2023-05-09T20:36:27.983Z,57.84
2023-05-09T20:39:29.484Z,57.70
2023-05-09T20:42:30.946Z,57.52
2023-05-09T20:45:32.612Z,57.92
2023-05-09T20:48:34.221Z,57.69
2023-05-09T20:51:35.777Z,57.35
2023-05-09T20:54:37.590Z,57.57
2023-05-09T20:57:39.092Z,57.85
2023-05-09T21:00:40.899Z,57.88
2023-05-09T21:03:42.342Z,58.28
2023-05-09T21:06:43.773Z,57.94
2023-05-09T21:09:47.450Z,58.00
2023-05-09T21:12:48.956Z,58.17
2023-05-09T21:15:50.868Z,58.19
2023-05-09T21:18:52.358Z,58.26
2023-05-09T21:21:54.977Z,58.46
2023-05-09T21:24:56.402Z,58.71
2023-05-09T21:27:57.854Z,58.47
2023-05-09T21:31:01.459Z,58.79
2023-05-09T21:34:09.446Z,58.56
2023-05-09T21:37:10.958Z,58.63
2023-05-09T21:40:12.979Z,58.85
2023-05-09T21:43:15.366Z,58.55
2023-05-09T21:46:16.876Z,58.57
2023-05-09T21:49:18.374Z,58.71
2023-05-09T21:52:19.918Z,58.55
2023-05-09T21:55:21.695Z,58.63
2023-05-09T21:58:23.222Z,58.58
2023-05-09T22:01:24.753Z,58.94
2023-05-09T22:04:26.300Z,58.93
2023-05-09T22:07:27.813Z,58.98
2023-05-09T22:10:29.354Z,58.85
2023-05-09T22:13:31.032Z,59.63
2023-05-09T22:16:32.755Z,59.22
2023-05-09T22:19:34.213Z,59.15
2023-05-09T22:22:35.688Z,59.57
2023-05-09T22:25:38.227Z,59.40
2023-05-09T22:28:39.657Z,59.34
2023-05-09T22:31:41.334Z,59.29
2023-05-09T22:34:42.785Z,59.39
2023-05-09T22:37:44.228Z,59.66
2023-05-09T22:40:45.903Z,59.82
2023-05-09T22:43:47.406Z,59.58
2023-05-09T22:46:48.869Z,59.95
2023-05-09T22:49:50.553Z,59.85
2023-05-09T22:52:52.055Z,59.74
2023-05-09T22:55:54.674Z,59.75
2023-05-09T22:58:56.255Z,59.54
2023-05-09T23:01:58.685Z,59.96
2023-05-09T23:05:00.167Z,59.99
2023-05-09T23:08:01.660Z,59.69
2023-05-09T23:11:04.286Z,60.04
2023-05-09T23:14:06.374Z,60.00
2023-05-09T23:17:07.857Z,60.02
2023-05-09T23:20:09.732Z,60.08
2023-05-09T23:23:11.248Z,60.06
2023-05-09T23:26:12.717Z,60.28
2023-05-09T23:29:14.937Z,60.19
2023-05-09T23:32:16.415Z,60.33
2023-05-09T23:35:19.085Z,60.77
2023-05-09T23:38:20.634Z,60.24
2023-05-09T23:41:22.415Z,60.44
2023-05-09T23:44:23.951Z,60.19
2023-05-09T23:47:25.449Z,60.16
2023-05-09T23:50:26.930Z,60.32
2023-05-09T23:53:28.482Z,60.59
2023-05-09T23:56:30.566Z,60.21
2023-05-09T23:59:32.078Z,60.12
